createdAt,value
2022-10-13T00:09:49.340Z,8.77
2022-10-13T00:16:40.006Z,7.78
2022-10-13T00:29:32.017Z,7.65
2022-10-13T00:37:37.292Z,10.02
2022-10-13T00:40:34.590Z,7.03
2022-10-13T00:43:56.403Z,8.85
2022-10-13T00:46:40.389Z,8.18
2022-10-13T00:49:43.074Z,9.25
2022-10-13T00:55:55.508Z,11.80
2022-10-13T00:59:02.005Z,10.57
2022-10-13T01:01:39.340Z,8.07
2022-10-13T01:41:56.757Z,9.00
2022-10-13T01:44:58.718Z,10.90
2022-10-13T01:47:56.297Z,15.90
2022-10-13T01:59:57.831Z,8.63
2022-10-13T02:03:07.017Z,6.97
2022-10-13T02:06:03.819Z,8.27
2022-10-13T02:08:56.173Z,8.98
2022-10-13T02:14:35.603Z,10.23
2022-10-13T02:21:30.223Z,8.82
2022-10-13T02:32:25.197Z,12.70
2022-10-13T02:35:26.301Z,11.45
2022-10-13T02:38:27.538Z,9.90
2022-10-13T02:41:29.123Z,13.75
2022-10-13T02:46:51.181Z,8.85
2022-10-13T02:50:26.250Z,10.02
2022-10-13T02:53:30.669Z,10.50
2022-10-13T03:06:52.553Z,9.32
2022-10-13T03:09:40.767Z,11.30
2022-10-13T03:19:29.364Z,8.85
2022-10-13T03:22:27.321Z,7.78
2022-10-13T03:43:23.203Z,10.05
2022-10-13T03:49:26.368Z,9.93
2022-10-13T03:53:20.867Z,7.68
2022-10-13T04:12:13.610Z,10.35
2022-10-13T04:16:47.552Z,9.82
2022-10-13T04:19:30.427Z,11.80
2022-10-13T04:23:09.737Z,8.98
2022-10-13T04:35:47.211Z,8.05
2022-10-13T04:39:15.072Z,8.75
2022-10-13T04:44:53.610Z,9.25
2022-10-13T04:48:15.741Z,12.25
2022-10-13T04:50:47.275Z,11.30
2022-10-13T04:53:54.313Z,8.95
2022-10-13T05:03:52.824Z,6.90
2022-10-13T05:07:16.600Z,10.00
2022-10-13T05:13:45.230Z,7.85
2022-10-13T05:16:51.183Z,10.05
2022-10-13T05:19:49.038Z,7.85
2022-10-13T05:22:48.568Z,8.40
2022-10-13T05:25:19.759Z,11.25
2022-10-13T05:27:51.324Z,8.65
2022-10-13T05:30:50.347Z,8.38
2022-10-13T05:33:40.264Z,7.93
2022-10-13T05:36:17.205Z,9.35
2022-10-13T05:43:13.142Z,9.00
2022-10-13T05:50:14.910Z,8.85
2022-10-13T06:06:19.265Z,7.18
2022-10-13T06:09:25.966Z,8.18
2022-10-13T06:12:15.285Z,8.88
2022-10-13T06:23:41.373Z,9.88
2022-10-13T06:26:12.781Z,9.77
2022-10-13T06:29:13.054Z,9.85
2022-10-13T06:35:17.583Z,7.95
2022-10-13T06:42:36.153Z,8.43
2022-10-13T06:51:46.070Z,8.05
2022-10-13T06:54:38.995Z,8.63
2022-10-13T06:57:10.968Z,8.02
2022-10-13T06:59:39.681Z,9.35
2022-10-13T07:02:39.989Z,7.50
2022-10-13T07:08:05.645Z,8.45
2022-10-13T07:11:08.038Z,8.60
2022-10-13T07:16:35.196Z,9.18
2022-10-13T07:19:13.074Z,7.80
2022-10-13T07:21:43.861Z,10.43
2022-10-13T07:24:38.988Z,7.38
2022-10-13T07:30:06.274Z,9.15
2022-10-13T07:36:04.760Z,10.45
2022-10-13T07:38:33.677Z,8.02
2022-10-13T07:41:04.417Z,8.38
2022-10-13T07:52:09.305Z,9.43
2022-10-13T07:58:07.901Z,7.60
2022-10-13T08:01:07.748Z,8.93
2022-10-13T08:09:32.261Z,7.80
2022-10-13T08:12:03.176Z,8.20
2022-10-13T08:17:33.586Z,7.00
2022-10-13T08:20:09.411Z,7.75
2022-10-13T08:23:06.734Z,8.93
2022-10-13T08:26:04.118Z,6.10
2022-10-13T08:29:28.446Z,6.82
2022-10-13T08:35:10.310Z,6.68
2022-10-13T08:51:09.901Z,7.30
2022-10-13T09:01:35.159Z,6.40
2022-10-13T09:14:32.902Z,6.10
2022-10-13T09:24:28.954Z,6.55
2022-10-13T09:27:27.876Z,6.10
2022-10-13T09:30:30.220Z,5.25
2022-10-13T09:37:23.602Z,6.05
2022-10-13T09:43:30.205Z,6.93
2022-10-13T09:46:14.440Z,5.63
2022-10-13T09:49:32.903Z,8.77
2022-10-13T09:52:26.436Z,5.63
2022-10-13T09:55:31.989Z,6.05
2022-10-13T10:02:34.195Z,4.72
2022-10-13T10:05:36.135Z,6.30
2022-10-13T10:11:26.482Z,5.20
2022-10-13T10:14:33.860Z,5.90
2022-10-13T10:24:51.189Z,4.70
2022-10-13T10:34:48.860Z,5.05
2022-10-13T10:37:53.804Z,4.80
2022-10-13T10:41:04.825Z,3.95
2022-10-13T10:43:56.010Z,5.97
2022-10-13T10:46:50.192Z,6.10
2022-10-13T10:56:47.701Z,4.75
2022-10-13T10:59:31.557Z,4.88
2022-10-13T11:02:20.390Z,4.57
2022-10-13T11:04:54.091Z,5.85
2022-10-13T11:07:47.486Z,6.03
2022-10-13T11:10:27.451Z,5.88
2022-10-13T11:13:19.249Z,4.95
2022-10-13T11:15:48.544Z,7.28
2022-10-13T11:18:57.573Z,5.35
2022-10-13T11:21:26.663Z,5.95
2022-10-13T11:24:01.872Z,5.68
2022-10-13T11:31:17.330Z,5.18
2022-10-13T11:47:18.568Z,5.03
2022-10-13T11:50:45.148Z,4.85
2022-10-13T11:53:43.602Z,5.05
2022-10-13T12:00:12.060Z,6.25
2022-10-13T12:08:13.838Z,6.45
2022-10-13T12:10:41.543Z,6.80
2022-10-13T12:13:41.973Z,6.63
2022-10-13T12:16:14.526Z,6.25
2022-10-13T12:18:43.070Z,5.75
2022-10-13T12:21:23.297Z,5.28
2022-10-13T12:24:16.703Z,5.90
2022-10-13T12:26:45.310Z,4.40
2022-10-13T12:29:19.470Z,5.93
2022-10-13T12:34:48.851Z,7.63
2022-10-13T12:38:39.379Z,6.65
2022-10-13T12:41:38.771Z,6.00
2022-10-13T12:44:42.887Z,7.45
2022-10-13T12:47:49.972Z,5.07
2022-10-13T12:50:39.175Z,5.63
2022-10-13T12:53:10.803Z,4.53
2022-10-13T12:56:39.597Z,4.93
2022-10-13T12:59:23.137Z,4.07
2022-10-13T13:02:01.159Z,4.38
2022-10-13T13:04:39.727Z,3.50
2022-10-13T13:07:40.454Z,3.70
2022-10-13T13:10:22.298Z,4.00
2022-10-13T13:16:37.049Z,5.07
2022-10-13T13:19:07.726Z,4.53
2022-10-13T13:21:35.906Z,5.63
2022-10-13T13:24:15.849Z,5.03
2022-10-13T13:26:47.249Z,4.10
2022-10-13T13:29:15.597Z,4.68
2022-10-13T13:31:44.097Z,3.85
2022-10-13T13:34:12.358Z,4.22
2022-10-13T13:36:44.426Z,4.47
2022-10-13T13:39:39.842Z,4.05
2022-10-13T13:42:17.488Z,4.63
2022-10-13T13:44:47.184Z,5.53
2022-10-13T13:47:31.418Z,4.47
2022-10-13T13:50:11.346Z,4.30
2022-10-13T14:22:50.446Z,7.90
2022-10-13T14:25:19.120Z,3.97
2022-10-13T14:27:47.348Z,3.75
2022-10-13T14:30:16.246Z,3.70
2022-10-13T14:32:44.511Z,3.67
2022-10-13T14:35:12.830Z,4.75
2022-10-13T14:37:41.041Z,3.80
2022-10-13T14:40:09.676Z,4.55
2022-10-13T14:42:39.846Z,4.68
2022-10-13T14:45:09.214Z,4.38
2022-10-13T14:47:39.507Z,3.53
2022-10-13T14:50:10.802Z,4.00
2022-10-13T14:55:07.065Z,4.43
2022-10-13T14:57:35.324Z,4.10
2022-10-13T15:00:06.435Z,2.97
2022-10-13T15:02:35.093Z,3.90
2022-10-13T15:05:03.457Z,5.10
2022-10-13T15:07:31.586Z,3.10
2022-10-13T15:10:05.316Z,3.95
2022-10-13T15:12:34.092Z,3.08
2022-10-13T15:15:02.539Z,3.28
2022-10-13T15:17:32.034Z,3.08
2022-10-13T15:20:00.277Z,4.82
2022-10-13T15:22:28.501Z,4.10
2022-10-13T15:24:56.852Z,4.85
2022-10-13T15:27:25.410Z,3.80
2022-10-13T15:29:53.727Z,4.20
2022-10-13T15:32:22.530Z,5.38
2022-10-13T15:34:50.860Z,3.97
2022-10-13T15:37:19.346Z,3.85
2022-10-13T15:39:47.511Z,2.63
2022-10-13T15:42:15.685Z,2.47
2022-10-13T15:47:32.134Z,2.00
2022-10-13T15:50:00.384Z,2.00
2022-10-13T15:52:32.291Z,3.08
2022-10-13T15:55:03.264Z,3.88
2022-10-13T15:57:34.449Z,3.17
2022-10-13T16:00:04.551Z,3.58
2022-10-13T16:02:33.124Z,3.00
2022-10-13T16:05:05.798Z,2.58
2022-10-13T16:07:34.309Z,1.98
2022-10-13T16:10:03.403Z,3.42
2022-10-13T16:12:32.128Z,1.70
2022-10-13T16:15:00.426Z,2.38
2022-10-13T16:17:28.599Z,2.03
2022-10-13T16:19:56.887Z,1.80
2022-10-13T16:22:25.514Z,1.17
2022-10-13T16:24:53.796Z,2.13
2022-10-13T16:27:22.529Z,1.88
2022-10-13T16:29:50.920Z,3.17
2022-10-13T16:32:19.306Z,1.05
2022-10-13T16:34:49.269Z,2.60
2022-10-13T16:37:17.529Z,2.85
2022-10-13T16:39:51.201Z,1.55
2022-10-13T16:42:20.126Z,1.42
2022-10-13T16:44:51.390Z,1.55
2022-10-13T16:49:48.177Z,1.17
2022-10-13T16:52:16.464Z,2.22
2022-10-13T16:54:44.687Z,1.67
2022-10-13T16:57:13.025Z,1.27
2022-10-13T16:59:41.848Z,2.13
2022-10-13T17:02:19.069Z,1.35
2022-10-13T17:04:47.239Z,2.67
2022-10-13T17:07:15.592Z,1.17
2022-10-13T17:09:44.042Z,1.13
2022-10-13T17:12:12.322Z,1.52
2022-10-13T17:14:40.607Z,1.95
2022-10-13T17:17:08.831Z,2.90
2022-10-13T17:19:37.241Z,1.58
2022-10-13T17:22:07.060Z,1.83
2022-10-13T17:24:35.350Z,1.73
2022-10-13T17:27:03.541Z,1.35
2022-10-13T17:29:31.969Z,1.40
2022-10-13T17:32:00.124Z,1.70
2022-10-13T17:34:28.254Z,1.33
2022-10-13T17:36:56.561Z,1.52
2022-10-13T17:39:24.810Z,1.27
2022-10-13T17:41:53.044Z,1.70
2022-10-13T17:44:21.994Z,1.30
2022-10-13T17:46:52.854Z,2.33
2022-10-13T17:49:21.048Z,2.25
2022-10-13T17:51:53.449Z,1.45
2022-10-13T17:54:21.817Z,2.17
2022-10-13T17:56:50.448Z,5.03
2022-10-13T17:59:19.350Z,2.75
2022-10-13T18:01:47.665Z,1.80
2022-10-13T18:04:18.472Z,2.05
2022-10-13T18:06:47.697Z,2.30
2022-10-13T18:09:18.872Z,5.55
2022-10-13T18:11:51.173Z,2.25
2022-10-13T18:14:25.103Z,2.75
2022-10-13T18:16:54.259Z,2.95
2022-10-13T18:19:23.170Z,2.55
2022-10-13T18:21:53.849Z,2.20
2022-10-13T18:24:22.225Z,1.63
2022-10-13T18:26:50.421Z,2.63
2022-10-13T18:29:18.952Z,1.75
2022-10-13T18:31:47.467Z,1.60
2022-10-13T18:34:18.396Z,1.95
2022-10-13T18:36:49.649Z,1.55
2022-10-13T18:39:19.100Z,2.85
2022-10-13T18:41:48.050Z,4.35
2022-10-13T18:44:16.910Z,5.63
2022-10-13T18:46:45.665Z,1.88
2022-10-13T18:49:15.591Z,2.20
2022-10-13T18:51:43.886Z,2.38
2022-10-13T18:54:12.311Z,2.83
2022-10-13T18:56:40.489Z,2.60
2022-10-13T18:59:10.304Z,2.30
2022-10-13T19:01:39.586Z,2.53
2022-10-13T19:04:08.111Z,2.67
2022-10-13T19:06:36.388Z,4.10
2022-10-13T19:09:07.370Z,3.67
2022-10-13T19:14:06.365Z,3.55
2022-10-13T19:16:38.128Z,2.72
2022-10-13T19:19:08.831Z,2.67
2022-10-13T19:21:39.036Z,3.05
2022-10-13T19:24:09.141Z,6.27
2022-10-13T19:26:37.913Z,3.87
2022-10-13T19:29:11.536Z,4.00
2022-10-13T19:31:41.044Z,2.10
2022-10-13T19:34:11.025Z,2.83
2022-10-13T19:36:47.524Z,3.42
2022-10-13T19:39:23.476Z,2.72
2022-10-13T19:41:53.725Z,3.25
2022-10-13T19:44:23.433Z,2.57
2022-10-13T19:46:52.852Z,3.88
2022-10-13T19:49:22.859Z,3.25
2022-10-13T19:51:53.809Z,3.28
2022-10-13T19:54:22.920Z,3.03
2022-10-13T19:56:52.009Z,3.15
2022-10-13T19:59:20.734Z,3.38
2022-10-13T20:01:49.233Z,3.90
2022-10-13T20:04:21.190Z,2.50
2022-10-13T20:06:51.384Z,2.13
2022-10-13T20:09:22.400Z,2.27
2022-10-13T20:11:52.488Z,2.95
2022-10-13T20:14:21.077Z,2.73
2022-10-13T20:16:49.819Z,4.40
2022-10-13T20:19:20.610Z,3.88
2022-10-13T20:21:49.030Z,3.33
2022-10-13T20:24:17.459Z,3.22
2022-10-13T20:26:45.851Z,2.88
2022-10-13T20:29:14.204Z,2.22
2022-10-13T20:31:43.027Z,2.03
2022-10-13T20:34:11.510Z,2.10
2022-10-13T20:36:39.909Z,1.67
2022-10-13T20:39:09.719Z,2.90
2022-10-13T20:41:37.959Z,1.60
2022-10-13T20:44:06.124Z,3.58
2022-10-13T20:46:34.416Z,2.35
2022-10-13T20:49:10.833Z,2.58
2022-10-13T20:51:43.836Z,2.60
2022-10-13T21:16:19.383Z,3.17
2022-10-13T21:18:49.851Z,2.92
2022-10-13T21:21:20.503Z,3.17
2022-10-13T21:23:57.382Z,3.35
2022-10-13T21:26:27.304Z,4.40
2022-10-13T21:28:55.621Z,1.63
2022-10-13T21:31:25.025Z,3.33
2022-10-13T21:33:53.429Z,3.90
2022-10-13T21:36:27.715Z,2.05
2022-10-13T21:38:59.537Z,2.97
2022-10-13T21:41:28.621Z,2.90
2022-10-13T21:43:57.533Z,2.60
2022-10-13T21:46:28.709Z,4.53
2022-10-13T21:48:59.522Z,4.13
2022-10-13T21:51:32.000Z,4.93
2022-10-13T21:54:02.907Z,3.45
2022-10-13T21:58:59.502Z,3.10
2022-10-13T22:01:28.044Z,3.83
2022-10-13T22:03:58.996Z,3.78
2022-10-13T22:08:58.237Z,2.28
2022-10-13T22:11:30.518Z,1.98
2022-10-13T22:14:00.900Z,1.90
2022-10-13T22:16:54.254Z,3.40
2022-10-13T22:19:25.767Z,2.72
2022-10-13T22:21:57.171Z,4.32
2022-10-13T22:24:25.407Z,3.33
2022-10-13T22:26:59.302Z,3.50
2022-10-13T22:32:04.244Z,3.83
2022-10-13T22:35:05.023Z,5.53
2022-10-13T22:41:29.903Z,5.18
2022-10-13T22:44:08.954Z,5.70
2022-10-13T22:50:27.408Z,2.92
2022-10-13T23:01:28.749Z,3.03
2022-10-13T23:11:33.558Z,2.95
2022-10-13T23:14:23.316Z,4.72
2022-10-13T23:16:56.865Z,3.42
2022-10-13T23:19:25.437Z,2.78
2022-10-13T23:22:54.104Z,3.25
2022-10-13T23:25:30.920Z,4.70
2022-10-13T23:45:33.390Z,2.80
2022-10-13T23:48:28.364Z,4.00
2022-10-13T23:52:20.690Z,2.60
2022-10-13T23:53:54.077Z,4.63
2022-10-13T23:57:37.145Z,2.72
